createdAt,value
2018-11-06T00:01:56.036Z,16.9
2018-11-06T00:06:59.477Z,12.7
2018-11-06T00:12:00.591Z,16.700001
2018-11-06T00:17:02.876Z,15.2
2018-11-06T00:22:05.224Z,15.3
2018-11-06T00:27:07.475Z,15.8
2018-11-06T00:32:09.702Z,15.1
2018-11-06T00:37:12.062Z,17.4
2018-11-06T00:42:14.383Z,15.9
2018-11-06T00:47:16.634Z,15.9
2018-11-06T00:52:18.906Z,13.3
2018-11-06T00:57:22.659Z,13.9
2018-11-06T01:02:24.596Z,13.8
2018-11-06T01:07:25.896Z,10.9
2018-11-06T01:12:28.088Z,16.200001
2018-11-06T01:17:30.505Z,10.2
2018-11-06T01:22:32.667Z,13.6
2018-11-06T01:27:35.019Z,13.1
2018-11-06T01:32:41.655Z,15.9
2018-11-06T01:37:39.542Z,15.7
2018-11-06T01:42:41.915Z,14.5
2018-11-06T01:47:44.171Z,13.9
2018-11-06T01:52:46.549Z,13.9
2018-11-06T01:57:48.832Z,12.9
2018-11-06T02:02:50.966Z,13.7
2018-11-06T02:07:53.350Z,11.5
2018-11-06T02:12:56.770Z,15.7
2018-11-06T02:17:59.367Z,14.2
2018-11-06T02:23:00.203Z,14.7
2018-11-06T02:28:02.489Z,14.3
2018-11-06T02:33:04.923Z,14.4
2018-11-06T02:38:07.162Z,14.7
2018-11-06T02:43:09.424Z,11.9
2018-11-06T02:48:11.719Z,15.7
2018-11-06T02:53:15.918Z,13.3
2018-11-06T02:58:16.291Z,12.7
2018-11-06T03:08:20.913Z,12
2018-11-06T03:13:23.178Z,12.9
2018-11-06T03:18:25.552Z,13.3
2018-11-06T03:23:27.790Z,13.6
2018-11-06T03:28:30.066Z,12.8
2018-11-06T03:33:32.355Z,11.1
2018-11-06T03:38:34.610Z,11.9
2018-11-06T03:43:38.063Z,9.7
2018-11-06T03:48:39.238Z,11
2018-11-06T03:53:41.637Z,15.1
2018-11-06T03:58:43.851Z,8.1
2018-11-06T04:03:46.033Z,13.1
2018-11-06T04:08:48.481Z,13
2018-11-06T04:13:50.795Z,9.6
2018-11-06T04:18:53.092Z,9.2
2018-11-06T04:23:55.297Z,10.3
2018-11-06T04:28:57.479Z,6.8
2018-11-06T04:34:00.027Z,12.3
2018-11-06T04:39:02.250Z,11.4
2018-11-06T04:44:04.481Z,11.5
2018-11-06T04:49:06.717Z,9.9
2018-11-06T04:54:09.224Z,9.7
2018-11-06T04:59:11.260Z,10.3
2018-11-06T05:04:13.568Z,6.5
2018-11-06T05:09:16.007Z,8.2
2018-11-06T05:14:18.312Z,6.8
2018-11-06T05:19:20.617Z,9.6
2018-11-06T05:24:22.900Z,8.5
2018-11-06T05:29:25.204Z,9.9
2018-11-06T05:34:27.317Z,9.6
2018-11-06T05:39:29.998Z,7.4
2018-11-06T05:44:32.132Z,6
2018-11-06T05:49:34.328Z,7.6
2018-11-06T05:54:36.646Z,4.7
2018-11-06T05:59:39.237Z,6.5
2018-11-06T06:04:41.092Z,6.1
2018-11-06T06:09:43.491Z,8.3
2018-11-06T06:14:45.833Z,7.4
2018-11-06T06:19:48.091Z,4.8
2018-11-06T06:24:50.346Z,10.4
2018-11-06T06:29:52.735Z,6.4
2018-11-06T06:34:54.903Z,6.9
2018-11-06T06:39:57.187Z,5.7
2018-11-06T06:44:59.519Z,6.8
2018-11-06T06:50:01.925Z,4.8
2018-11-06T06:55:04.124Z,5.4
2018-11-06T07:00:06.354Z,4.7
2018-11-06T07:05:08.795Z,4.1
2018-11-06T07:10:10.949Z,4.6
2018-11-06T07:15:13.258Z,7.5
2018-11-06T07:20:15.560Z,6.9
2018-11-06T07:25:17.945Z,5.3
2018-11-06T07:30:20.166Z,8.1
2018-11-06T07:35:22.478Z,6.4
2018-11-06T07:40:24.951Z,4.4
2018-11-06T07:45:27.173Z,2.7
2018-11-06T07:50:39.635Z,4.2
2018-11-06T07:55:31.728Z,4.1
2018-11-06T08:00:33.909Z,3.5
2018-11-06T08:05:36.227Z,3.1
2018-11-06T08:10:38.735Z,4.4
2018-11-06T08:15:40.861Z,4
2018-11-06T08:20:43.112Z,2
2018-11-06T08:25:45.419Z,3.8
2018-11-06T08:30:47.869Z,2.7
2018-11-06T08:35:50.038Z,3.6
2018-11-06T08:40:52.328Z,3.3
2018-11-06T08:45:54.615Z,2.7
2018-11-06T08:50:56.879Z,2.6
2018-11-06T08:55:59.180Z,3.1
2018-11-06T09:01:02.486Z,3.4
2018-11-06T09:06:03.873Z,2.7
2018-11-06T09:31:27.743Z,4.4
2018-11-06T09:36:30.188Z,2.3
2018-11-06T09:41:32.556Z,2.8
2018-11-06T09:46:34.640Z,3.2
2018-11-06T09:51:37.038Z,2.6
2018-11-06T09:56:39.383Z,3.5
2018-11-06T10:01:41.595Z,4.5
2018-11-06T10:06:44.171Z,2.4
2018-11-06T10:11:46.207Z,1.9
2018-11-06T10:16:48.418Z,5
2018-11-06T10:21:50.796Z,1.9
2018-11-06T10:26:53.218Z,1.2
2018-11-06T10:31:55.360Z,1.7
2018-11-06T10:36:57.670Z,1.6
2018-11-06T10:42:00.108Z,1.4
2018-11-06T10:47:02.362Z,1.9
2018-11-06T10:52:04.479Z,2.8
2018-11-06T10:57:06.813Z,1.4
2018-11-06T11:02:09.285Z,3.9
2018-11-06T11:07:11.361Z,1.9
2018-11-06T11:12:13.648Z,2.4
2018-11-06T11:17:15.943Z,1.8
2018-11-06T11:22:18.355Z,3.6
2018-11-06T11:27:20.632Z,2.6
2018-11-06T11:32:22.862Z,2.7
2018-11-06T11:37:25.079Z,1.7
2018-11-06T11:42:27.511Z,1.6
2018-11-06T11:47:29.762Z,1.2
2018-11-06T11:52:32.055Z,1.4
2018-11-06T11:57:34.469Z,2.3
2018-11-06T12:02:36.633Z,1.9
2018-11-06T12:07:39.216Z,2
2018-11-06T12:12:41.293Z,1.6
2018-11-06T12:17:43.617Z,2.3
2018-11-06T12:22:45.830Z,2.3
2018-11-06T12:27:48.261Z,2.9
2018-11-06T12:32:50.389Z,1.7
2018-11-06T12:37:52.748Z,2.1
2018-11-06T12:42:54.990Z,1.4
2018-11-06T12:47:57.300Z,2.2
2018-11-06T12:52:59.625Z,1.9
2018-11-06T12:58:02.001Z,2.5
2018-11-06T13:03:04.243Z,1.6
2018-11-06T13:08:06.573Z,3.7
2018-11-06T13:13:08.877Z,2.1
2018-11-06T13:18:11.030Z,1.6
2018-11-06T13:23:13.295Z,2.2
2018-11-06T13:28:15.732Z,4.4
2018-11-06T13:38:33.357Z,1.8
2018-11-06T13:43:35.877Z,2.2
2018-11-06T13:48:37.960Z,2.7
2018-11-06T13:53:40.144Z,1.5
2018-11-06T13:58:42.411Z,2.1
2018-11-06T14:03:44.903Z,3.5
2018-11-06T14:08:47.036Z,5.2
2018-11-06T14:13:49.431Z,2.3
2018-11-06T14:18:51.701Z,4.2
2018-11-06T14:23:53.949Z,2.9
2018-11-06T14:28:56.156Z,3.8
2018-11-06T14:33:58.581Z,2.6
2018-11-06T14:39:00.907Z,4.3
2018-11-06T14:44:03.161Z,3
2018-11-06T14:49:05.785Z,2.4
2018-11-06T14:54:07.717Z,2
2018-11-06T14:59:09.904Z,4.4
2018-11-06T15:04:12.325Z,2.8
2018-11-06T15:09:14.704Z,2.9
2018-11-06T15:14:16.871Z,2
2018-11-06T15:19:19.164Z,2.7
2018-11-06T15:24:21.389Z,3.2
2018-11-06T15:29:23.742Z,3.9
2018-11-06T15:34:26.084Z,6.2
2018-11-06T15:39:28.453Z,4.2
2018-11-06T15:44:30.627Z,2.8
2018-11-06T15:49:33.055Z,2.5
2018-11-06T15:54:35.434Z,2.8
2018-11-06T15:59:37.470Z,1.9
2018-11-06T16:04:39.796Z,2.1
2018-11-06T16:09:42.235Z,2.2
2018-11-06T16:14:44.359Z,3.1
2018-11-06T16:19:46.949Z,2.2
2018-11-06T16:24:49.040Z,2
2018-11-06T16:29:51.394Z,2.9
2018-11-06T16:34:53.682Z,3.3
2018-11-06T16:39:55.795Z,2.9
2018-11-06T16:44:58.144Z,3.1
2018-11-06T16:50:00.502Z,2.7
2018-11-06T16:55:02.769Z,3
2018-11-06T17:00:05.209Z,2.8
2018-11-06T17:05:07.290Z,3.2
2018-11-06T17:10:09.627Z,4.1
2018-11-06T17:15:11.967Z,4.2
2018-11-06T17:20:14.172Z,3
2018-11-06T17:25:16.566Z,3.5
2018-11-06T17:30:18.732Z,2.7
2018-11-06T17:35:21.094Z,2.8
2018-11-06T17:40:23.521Z,2.9
2018-11-06T17:45:25.634Z,4.2
2018-11-06T17:50:27.931Z,2.7
2018-11-06T17:55:30.430Z,3.6
2018-11-06T18:00:32.651Z,2.7
2018-11-06T18:05:34.920Z,4.7
2018-11-06T18:10:37.215Z,2.1
2018-11-06T18:15:39.489Z,3.2
2018-11-06T18:20:41.840Z,4.4
2018-11-06T18:25:44.146Z,2.8
2018-11-06T18:30:46.451Z,2.5
2018-11-06T18:35:48.792Z,2.8
2018-11-06T18:40:50.938Z,3.4
2018-11-06T18:45:53.311Z,1.7
2018-11-06T18:50:55.534Z,2.6
2018-11-06T18:55:57.790Z,3.4
2018-11-06T19:01:00.052Z,2.7
2018-11-06T19:06:02.345Z,2.6
2018-11-06T19:11:05.173Z,4.1
2018-11-06T19:16:07.077Z,3
2018-11-06T19:21:09.257Z,3.1
2018-11-06T19:26:11.515Z,3.6
2018-11-06T19:31:13.947Z,3.4
2018-11-06T19:36:18.124Z,3.1
2018-11-06T19:41:18.502Z,2.7
2018-11-06T19:46:20.860Z,2.9
2018-11-06T19:51:23.134Z,3
2018-11-06T19:56:27.729Z,6.1
2018-11-06T20:01:27.599Z,4.2
2018-11-06T20:11:32.326Z,2.2
2018-11-06T20:16:34.609Z,3.2
2018-11-06T20:21:37.011Z,2.5
2018-11-06T20:26:39.022Z,2.4
2018-11-06T20:31:41.405Z,1.8
2018-11-06T20:36:43.699Z,2.8
2018-11-06T20:41:45.984Z,2.2
2018-11-06T20:46:48.292Z,2.6
2018-11-06T20:51:51.710Z,1.7
2018-11-06T20:56:52.838Z,2.8
2018-11-06T21:01:55.132Z,1.3
2018-11-06T21:06:58.800Z,1.9
2018-11-06T21:11:59.798Z,0.7
2018-11-06T21:17:02.086Z,1.1
2018-11-06T21:22:04.435Z,1.4
2018-11-06T21:27:06.832Z,1.6
2018-11-06T21:37:11.200Z,2.1
2018-11-06T21:42:13.658Z,1
2018-11-06T21:47:15.786Z,0.8
2018-11-06T21:52:19.393Z,1.4
2018-11-06T21:57:20.435Z,2.1
2018-11-06T22:02:22.701Z,4.8
2018-11-06T22:07:24.920Z,1.2
2018-11-06T22:12:27.291Z,2.7
2018-11-06T22:17:31.357Z,1.3
2018-11-06T22:22:31.875Z,0.4
2018-11-06T22:27:34.286Z,1.8
2018-11-06T22:32:36.524Z,1.8
2018-11-06T22:37:38.788Z,1.4
2018-11-06T22:42:42.455Z,8.9
2018-11-06T22:47:43.245Z,3.5
2018-11-06T22:52:47.473Z,3.1
2018-11-06T22:57:47.956Z,0.9
2018-11-06T23:02:50.263Z,1.6
2018-11-06T23:07:52.436Z,2.3
2018-11-06T23:12:54.851Z,2.7
2018-11-06T23:17:57.085Z,1.7
2018-11-06T23:23:00.464Z,2
2018-11-06T23:28:01.657Z,0.2
2018-11-06T23:33:04.047Z,1.2
2018-11-06T23:38:06.239Z,1.3
2018-11-06T23:43:08.628Z,0.4
2018-11-06T23:48:10.803Z,1.1
2018-11-06T23:53:13.321Z,0.9
2018-11-06T23:58:15.493Z,0.9
